sensor_id;sensor_type;location;lat;lon;timestamp;pressure;altitude;pressure_sealevel;temperature;humidity
45939;BME280;31650;48.818;9.116;2022-09-01T00:14:47;98207.34;;;13.08;100.00
45939;BME280;31650;48.818;9.116;2022-09-01T00:29:48;98213.19;;;13.12;100.00
45939;BME280;31650;48.818;9.116;2022-09-01T00:44:48;98206.03;;;12.81;100.00
45939;BME280;31650;48.818;9.116;2022-09-01T00:59:50;98202.69;;;12.60;100.00
45939;BME280;31650;48.818;9.116;2022-09-01T01:14:52;98196.19;;;12.61;100.00
45939;BME280;31650;48.818;9.116;2022-09-01T01:29:52;98189.69;;;13.11;100.00
45939;BME280;31650;48.818;9.116;2022-09-01T01:44:54;98199.06;;;12.29;100.00
45939;BME280;31650;48.818;9.116;2022-09-01T01:59:55;98196.97;;;12.06;100.00
45939;BME280;31650;48.818;9.116;2022-09-01T02:14:55;98197.78;;;11.82;100.00
45939;BME280;31650;48.818;9.116;2022-09-01T02:29:59;98195.38;;;11.99;100.00
45939;BME280;31650;48.818;9.116;2022-09-01T02:45:00;98194.75;;;11.97;100.00
45939;BME280;31650;48.818;9.116;2022-09-01T03:00:03;98193.97;;;11.89;100.00
45939;BME280;31650;48.818;9.116;2022-09-01T03:15:04;98178.84;;;11.68;100.00
45939;BME280;31650;48.818;9.116;2022-09-01T03:30:05;98176.56;;;11.65;100.00
45939;BME280;31650;48.818;9.116;2022-09-01T03:45:06;98202.66;;;11.48;100.00
45939;BME280;31650;48.818;9.116;2022-09-01T04:00:08;98187.41;;;11.72;100.00
45939;BME280;31650;48.818;9.116;2022-09-01T04:15:19;98195.88;;;11.89;100.00
45939;BME280;31650;48.818;9.116;2022-09-01T04:30:20;98202.84;;;11.21;100.00
45939;BME280;31650;48.818;9.116;2022-09-01T04:45:23;98208.84;;;10.92;100.00
45939;BME280;31650;48.818;9.116;2022-09-01T05:00:26;98207.38;;;10.96;100.00
45939;BME280;31650;48.818;9.116;2022-09-01T05:15:31;98206.38;;;11.54;100.00
45939;BME280;31650;48.818;9.116;2022-09-01T05:30:32;98205.91;;;12.13;100.00
45939;BME280;31650;48.818;9.116;2022-09-01T05:45:35;98200.38;;;12.94;100.00
45939;BME280;31650;48.818;9.116;2022-09-01T06:00:35;98192.03;;;13.07;100.00
45939;BME280;31650;48.818;9.116;2022-09-01T06:15:37;98207.75;;;13.54;100.00
45939;BME280;31650;48.818;9.116;2022-09-01T06:30:38;98209.50;;;13.78;100.00
45939;BME280;31650;48.818;9.116;2022-09-01T06:45:40;98204.31;;;14.12;100.00
45939;BME280;31650;48.818;9.116;2022-09-01T07:00:41;98216.91;;;15.01;100.00
45939;BME280;31650;48.818;9.116;2022-09-01T07:15:42;98222.38;;;16.21;100.00
45939;BME280;31650;48.818;9.116;2022-09-01T07:30:43;98198.97;;;16.74;100.00
45939;BME280;31650;48.818;9.116;2022-09-01T07:45:44;98201.47;;;17.41;100.00
45939;BME280;31650;48.818;9.116;2022-09-01T08:00:46;98191.31;;;18.44;100.00
45939;BME280;31650;48.818;9.116;2022-09-01T08:15:49;98196.06;;;19.01;100.00
45939;BME280;31650;48.818;9.116;2022-09-01T08:30:50;98200.59;;;19.43;100.00
45939;BME280;31650;48.818;9.116;2022-09-01T08:45:51;98202.25;;;19.34;100.00
45939;BME280;31650;48.818;9.116;2022-09-01T09:00:55;98201.78;;;20.29;100.00
45939;BME280;31650;48.818;9.116;2022-09-01T09:16:00;98218.03;;;19.69;100.00
45939;BME280;31650;48.818;9.116;2022-09-01T09:46:25;98209.25;;;19.88;100.00
45939;BME280;31650;48.818;9.116;2022-09-01T10:16:30;98182.94;;;21.82;100.00
45939;BME280;31650;48.818;9.116;2022-09-01T10:31:31;98200.94;;;21.30;100.00
45939;BME280;31650;48.818;9.116;2022-09-01T11:16:40;98148.50;;;25.51;93.55
45939;BME280;31650;48.818;9.116;2022-09-01T11:31:41;98155.06;;;22.85;100.00
45939;BME280;31650;48.818;9.116;2022-09-01T11:46:42;98149.38;;;23.95;100.00
45939;BME280;31650;48.818;9.116;2022-09-01T12:01:44;98121.19;;;25.54;93.46
45939;BME280;31650;48.818;9.116;2022-09-01T12:16:44;98118.13;;;24.91;95.26
45939;BME280;31650;48.818;9.116;2022-09-01T12:31:54;98114.69;;;25.22;98.14
45939;BME280;31650;48.818;9.116;2022-09-01T12:46:55;98096.78;;;26.18;91.88
45939;BME280;31650;48.818;9.116;2022-09-01T13:01:55;98089.31;;;26.05;77.77
45939;BME280;31650;48.818;9.116;2022-09-01T13:16:55;98086.78;;;25.95;74.81
45939;BME280;31650;48.818;9.116;2022-09-01T13:31:56;98075.97;;;25.70;84.00
45939;BME280;31650;48.818;9.116;2022-09-01T13:46:57;98077.56;;;24.35;100.00
45939;BME280;31650;48.818;9.116;2022-09-01T14:01:57;98071.41;;;24.65;90.01
45939;BME280;31650;48.818;9.116;2022-09-01T14:16:57;98059.22;;;23.73;91.75
45939;BME280;31650;48.818;9.116;2022-09-01T14:31:58;98048.28;;;23.82;96.86
45939;BME280;31650;48.818;9.116;2022-09-01T14:46:58;98033.50;;;24.00;100.00
45939;BME280;31650;48.818;9.116;2022-09-01T15:01:59;98028.75;;;24.01;94.14
45939;BME280;31650;48.818;9.116;2022-09-01T15:17:00;98014.25;;;26.00;78.41
45939;BME280;31650;48.818;9.116;2022-09-01T15:32:00;98012.91;;;26.94;65.27
45939;BME280;31650;48.818;9.116;2022-09-01T15:47:03;97995.66;;;27.01;65.05
45939;BME280;31650;48.818;9.116;2022-09-01T16:02:04;97987.31;;;27.10;64.35
45939;BME280;31650;48.818;9.116;2022-09-01T16:17:14;97997.03;;;25.66;77.24
45939;BME280;31650;48.818;9.116;2022-09-01T17:18:57;97976.28;;;21.14;100.00
45939;BME280;31650;48.818;9.116;2022-09-01T18:19:23;98027.56;;;18.51;100.00
45939;BME280;31650;48.818;9.116;2022-09-01T19:04:39;98043.31;;;16.25;100.00
45939;BME280;31650;48.818;9.116;2022-09-01T19:19:41;98047.28;;;16.34;100.00
45939;BME280;31650;48.818;9.116;2022-09-01T19:34:45;98052.00;;;16.39;100.00
45939;BME280;31650;48.818;9.116;2022-09-01T19:49:50;98059.34;;;15.72;100.00
45939;BME280;31650;48.818;9.116;2022-09-01T20:20:10;98048.81;;;16.03;100.00
45939;BME280;31650;48.818;9.116;2022-09-01T20:35:12;98050.63;;;15.42;100.00
45939;BME280;31650;48.818;9.116;2022-09-01T20:50:13;98055.81;;;14.93;100.00
45939;BME280;31650;48.818;9.116;2022-09-01T21:35:30;98050.34;;;14.64;100.00
45939;BME280;31650;48.818;9.116;2022-09-01T21:50:30;98052.22;;;14.35;100.00
45939;BME280;31650;48.818;9.116;2022-09-01T22:05:30;98051.13;;;13.95;100.00
45939;BME280;31650;48.818;9.116;2022-09-01T22:20:32;98057.78;;;13.40;100.00
45939;BME280;31650;48.818;9.116;2022-09-01T22:35:32;98057.53;;;13.42;100.00
45939;BME280;31650;48.818;9.116;2022-09-01T22:50:32;98056.78;;;13.11;100.00
45939;BME280;31650;48.818;9.116;2022-09-01T23:05:32;98055.69;;;13.12;100.00
45939;BME280;31650;48.818;9.116;2022-09-01T23:20:33;98056.22;;;12.49;100.00
45939;BME280;31650;48.818;9.116;2022-09-01T23:35:33;98050.66;;;12.07;100.00
45939;BME280;31650;48.818;9.116;2022-09-01T23:50:39;98060.78;;;11.81;100.00
